Time,TemperatureF,DewpointF,PressureIn,WindDirection,WindDirectionDegrees,WindSpeedMPH,WindSpeedGustMPH,Humidity,HourlyPrecipIn,Conditions,Clouds,dailyrainin,SoftwareType,DateUTC
2013-03-18 00:00:00,33.4,33.4,29.79,WNW,294,0.0,8.0,100,0.00,,,0.02,VWS V14.01,2013-03-18 05:00:00,
2013-03-18 00:04:00,32.7,32.7,29.73,WSW,247,12.0,16.0,100,0.00,,,0.02,VWS V14.01,2013-03-18 05:04:00,
2013-03-18 00:09:00,32.8,32.8,29.73,WSW,241,13.0,16.0,100,0.00,,,0.02,VWS V14.01,2013-03-18 05:09:00,
2013-03-18 00:14:00,32.8,32.8,29.73,WSW,244,8.0,17.0,100,0.00,,,0.02,VWS V14.01,2013-03-18 05:14:00,
2013-03-18 00:15:00,33.8,33.8,29.79,WNW,296,2.0,5.0,100,0.00,,,0.00,VWS V14.01,2013-03-18 05:15:00,
2013-03-18 00:19:00,32.9,32.9,29.75,SW,232,10.0,16.0,100,0.00,,,0.02,VWS V14.01,2013-03-18 05:19:00,
2013-03-18 00:24:00,32.9,32.9,29.75,SW,233,11.0,16.0,100,0.00,,,0.02,VWS V14.01,2013-03-18 05:24:00,
2013-03-18 00:29:00,32.9,32.9,29.75,SW,217,12.0,17.0,100,0.00,,,0.02,VWS V14.01,2013-03-18 05:29:00,
2013-03-18 00:30:00,34.0,34.0,29.80,WNW,296,2.0,3.0,100,0.00,,,0.00,VWS V14.01,2013-03-18 05:30:00,
2013-03-18 00:34:00,33.1,33.1,29.76,WSW,241,10.0,13.0,100,0.00,,,0.02,VWS V14.01,2013-03-18 05:34:00,
2013-03-18 00:39:00,33.1,33.1,29.76,WSW,243,8.0,14.0,100,0.00,,,0.02,VWS V14.01,2013-03-18 05:39:00,
2013-03-18 00:44:00,33.1,33.1,29.76,WSW,250,4.0,14.0,100,0.00,,,0.02,VWS V14.01,2013-03-18 05:44:00,
2013-03-18 00:45:00,34.3,34.3,29.80,North,0,5.0,11.0,100,0.00,,,0.00,VWS V14.01,2013-03-18 05:45:00,
2013-03-18 00:49:00,33.1,33.1,29.78,WSW,254,2.0,8.0,100,0.00,,,0.02,VWS V14.01,2013-03-18 05:49:00,
2013-03-18 00:54:00,33.2,33.2,29.78,WSW,256,3.0,8.0,100,0.00,,,0.02,VWS V14.01,2013-03-18 05:54:00,
2013-03-18 00:59:00,33.4,33.4,29.78,WNW,296,7.0,8.0,100,0.00,,,0.02,VWS V14.01,2013-03-18 05:59:00,
2013-03-18 01:00:00,35.0,35.0,29.78,North,359,10.0,13.0,100,0.00,,,0.00,VWS V14.01,2013-03-18 06:00:00,
2013-03-18 01:04:00,33.4,33.4,29.79,WNW,296,0.0,5.0,100,0.00,,,0.00,VWS V14.01,2013-03-18 06:04:00,
2013-03-18 01:09:00,33.5,33.5,29.79,WNW,296,0.0,5.0,100,0.00,,,0.00,VWS V14.01,2013-03-18 06:09:00,
2013-03-18 01:14:00,33.7,33.7,29.79,WNW,296,1.0,5.0,100,0.00,,,0.00,VWS V14.01,2013-03-18 06:14:00,
2013-03-18 01:15:00,35.5,35.5,29.77,NNW,343,12.0,14.0,100,0.00,,,0.00,VWS V14.01,2013-03-18 06:15:00,
2013-03-18 01:19:00,33.8,33.8,29.79,WNW,296,2.0,3.0,100,0.00,,,0.00,VWS V14.01,2013-03-18 06:19:00,
2013-03-18 01:24:00,33.8,33.8,29.79,WNW,296,1.0,3.0,100,0.00,,,0.00,VWS V14.01,2013-03-18 06:24:00,
2013-03-18 01:29:00,34.0,34.0,29.79,WNW,296,0.0,3.0,100,0.00,,,0.00,VWS V14.01,2013-03-18 06:29:00,
2013-03-18 01:30:00,35.0,31.5,29.79,NNW,343,5.0,12.0,87,0.00,,,0.00,VWS V14.01,2013-03-18 06:30:00,
2013-03-18 01:34:00,34.0,34.0,29.80,WNW,296,0.0,3.0,100,0.00,,,0.00,VWS V14.01,2013-03-18 06:34:00,
2013-03-18 01:39:00,34.0,34.0,29.80,WNW,296,0.0,3.0,100,0.00,,,0.00,VWS V14.01,2013-03-18 06:39:00,
2013-03-18 01:44:00,34.1,34.1,29.80,NW,323,3.0,10.0,100,0.00,,,0.00,VWS V14.01,2013-03-18 06:44:00,
2013-03-18 01:45:00,34.3,31.1,29.80,North,350,8.0,10.0,88,0.00,,,0.00,VWS V14.01,2013-03-18 06:45:00,
2013-03-18 01:49:00,34.4,34.4,29.80,NNW,344,7.0,10.0,100,0.00,,,0.00,VWS V14.01,2013-03-18 06:49:00,
2013-03-18 01:54:00,34.6,34.6,29.80,NNW,342,6.0,12.0,100,0.00,,,0.00,VWS V14.01,2013-03-18 06:54:00,
2013-03-18 01:59:00,34.7,34.7,29.80,North,359,5.0,12.0,100,0.00,,,0.00,VWS V14.01,2013-03-18 06:59:00,
2013-03-18 02:00:00,34.7,30.1,29.80,North,350,8.0,12.0,83,0.00,,,0.00,VWS V14.01,2013-03-18 07:00:00,
2013-03-18 02:04:00,35.2,35.2,29.78,North,359,10.0,12.0,100,0.00,,,0.00,VWS V14.01,2013-03-18 07:04:00,
2013-03-18 02:09:00,35.3,35.3,29.78,North,359,11.0,14.0,100,0.00,,,0.00,VWS V14.01,2013-03-18 07:09:00,
2013-03-18 02:14:00,35.5,35.5,29.78,NNW,343,7.0,14.0,100,0.00,,,0.00,VWS V14.01,2013-03-18 07:14:00,
2013-03-18 02:15:00,34.9,29.4,29.82,North,357,12.0,16.0,80,0.00,,,0.00,VWS V14.01,2013-03-18 07:15:00,
2013-03-18 02:19:00,35.6,35.6,29.77,North,356,8.0,12.0,100,0.00,,,0.00,VWS V14.01,2013-03-18 07:19:00,
2013-03-18 02:24:00,35.5,33.1,29.77,NNW,346,7.0,12.0,91,0.00,,,0.00,VWS V14.01,2013-03-18 07:24:00,
2013-03-18 02:29:00,35.2,31.4,29.77,NNW,347,3.0,12.0,86,0.00,,,0.00,VWS V14.01,2013-03-18 07:29:00,
2013-03-18 02:30:00,33.2,28.9,29.83,NNW,347,2.0,12.0,84,0.00,,,0.00,VWS V14.01,2013-03-18 07:30:00,
2013-03-18 02:34:00,34.9,32.0,29.79,North,359,5.0,7.0,89,0.00,,,0.00,VWS V14.01,2013-03-18 07:34:00,
2013-03-18 02:39:00,34.6,31.4,29.79,North,359,1.0,7.0,88,0.00,,,0.00,VWS V14.01,2013-03-18 07:39:00,
2013-03-18 02:44:00,34.4,31.2,29.79,North,0,7.0,7.0,88,0.00,,,0.00,VWS V14.01,2013-03-18 07:44:00,
2013-03-18 02:45:00,32.2,29.6,29.83,NNW,342,2.0,5.0,90,0.00,,,0.00,VWS V14.01,2013-03-18 07:45:00,
2013-03-18 02:49:00,34.3,30.8,29.80,North,354,7.0,8.0,87,0.00,,,0.00,VWS V14.01,2013-03-18 07:49:00,
2013-03-18 02:54:00,34.6,30.3,29.80,North,359,7.0,12.0,84,0.00,,,0.00,VWS V14.01,2013-03-18 07:54:00,
2013-03-18 02:59:00,34.7,30.1,29.80,North,359,9.0,12.0,83,0.00,,,0.00,VWS V14.01,2013-03-18 07:59:00,
2013-03-18 03:00:00,32.1,28.4,29.83,North,357,6.0,7.0,86,0.00,,,0.00,VWS V14.01,2013-03-18 08:00:00,
2013-03-18 03:04:00,34.9,30.6,29.80,North,354,5.0,12.0,84,0.00,,,0.00,VWS V14.01,2013-03-18 08:04:00,
2013-03-18 03:09:00,35.2,30.9,29.80,North,352,6.0,16.0,84,0.00,,,0.00,VWS V14.01,2013-03-18 08:09:00,
2013-03-18 03:14:00,35.0,30.1,29.80,North,359,13.0,16.0,82,0.00,,,0.00,VWS V14.01,2013-03-18 08:14:00,
2013-03-18 03:15:00,31.8,28.1,29.83,North,352,0.0,8.0,86,0.00,,,0.00,VWS V14.01,2013-03-18 08:15:00,
2013-03-18 03:19:00,34.7,29.2,29.82,North,359,10.0,12.0,80,0.00,,,0.00,VWS V14.01,2013-03-18 08:19:00,
2013-03-18 03:24:00,34.3,30.0,29.82,NNW,335,5.0,12.0,84,0.00,,,0.00,VWS V14.01,2013-03-18 08:24:00,
2013-03-18 03:29:00,33.5,29.2,29.82,North,353,1.0,12.0,84,0.00,,,0.00,VWS V14.01,2013-03-18 08:29:00,
2013-03-18 03:30:00,30.7,28.1,29.83,North,352,2.0,2.0,90,0.00,,,0.00,VWS V14.01,2013-03-18 08:30:00,
2013-03-18 03:34:00,32.9,29.5,29.83,NNW,340,2.0,5.0,87,0.00,,,0.00,VWS V14.01,2013-03-18 08:34:00,
2013-03-18 03:39:00,32.7,29.5,29.83,NNW,343,1.0,5.0,88,0.00,,,0.00,VWS V14.01,2013-03-18 08:39:00,
2013-03-18 03:44:00,32.4,29.5,29.83,NNW,340,2.0,5.0,89,0.00,,,0.00,VWS V14.01,2013-03-18 08:44:00,
2013-03-18 03:45:00,30.0,27.7,29.83,NW,313,1.0,4.0,91,0.00,,,0.00,VWS V14.01,2013-03-18 08:45:00,
2013-03-18 03:49:00,32.1,28.7,29.83,NNW,343,1.0,3.0,87,0.00,,,0.00,VWS V14.01,2013-03-18 08:49:00,
2013-03-18 03:54:00,31.9,28.5,29.83,North,359,2.0,4.0,87,0.00,,,0.00,VWS V14.01,2013-03-18 08:54:00,
2013-03-18 03:59:00,32.1,28.4,29.83,North,359,3.0,5.0,86,0.00,,,0.00,VWS V14.01,2013-03-18 08:59:00,
2013-03-18 04:00:00,29.7,27.9,29.83,West,280,5.0,5.0,93,0.00,,,0.00,VWS V14.01,2013-03-18 09:00:00,
2013-03-18 04:04:00,32.2,27.6,29.83,North,359,3.0,8.0,83,0.00,,,0.00,VWS V14.01,2013-03-18 09:04:00,
2013-03-18 04:09:00,32.2,27.9,29.83,NNW,343,4.0,8.0,84,0.00,,,0.00,VWS V14.01,2013-03-18 09:09:00,
2013-03-18 04:14:00,31.9,27.6,29.83,North,350,2.0,8.0,84,0.00,,,0.00,VWS V14.01,2013-03-18 09:14:00,
2013-03-18 04:15:00,29.7,28.5,29.83,WNW,292,2.0,5.0,95,0.00,,,0.00,VWS V14.01,2013-03-18 09:15:00,
2013-03-18 04:19:00,31.6,27.9,29.83,North,352,0.0,2.0,86,0.00,,,0.00,VWS V14.01,2013-03-18 09:19:00,
2013-03-18 04:24:00,31.3,28.4,29.83,North,352,0.0,2.0,89,0.00,,,0.00,VWS V14.01,2013-03-18 09:24:00,
2013-03-18 04:29:00,30.9,28.0,29.83,North,352,0.0,2.0,89,0.00,,,0.00,VWS V14.01,2013-03-18 09:29:00,
2013-03-18 04:30:00,29.5,28.0,29.83,WNW,295,2.0,4.0,94,0.00,,,0.00,VWS V14.01,2013-03-18 09:30:00,
2013-03-18 04:34:00,30.6,27.5,29.83,North,352,2.0,2.0,88,0.00,,,0.00,VWS V14.01,2013-03-18 09:34:00,
2013-03-18 04:39:00,30.3,28.0,29.83,North,352,2.0,4.0,91,0.00,,,0.00,VWS V14.01,2013-03-18 09:39:00,
2013-03-18 04:44:00,30.0,27.7,29.83,NW,313,2.0,4.0,91,0.00,,,0.00,VWS V14.01,2013-03-18 09:44:00,
2013-03-18 04:45:00,27.3,27.3,29.84,WNW,295,0.0,3.0,100,0.00,,,0.00,VWS V14.01,2013-03-18 09:45:00,
2013-03-18 04:49:00,30.0,27.7,29.83,NW,311,2.0,4.0,91,0.00,,,0.00,VWS V14.01,2013-03-18 09:49:00,
2013-03-18 04:54:00,29.8,27.8,29.83,West,281,3.0,5.0,92,0.00,,,0.00,VWS V14.01,2013-03-18 09:54:00,
2013-03-18 04:59:00,29.7,27.9,29.83,West,280,5.0,5.0,93,0.00,,,0.00,VWS V14.01,2013-03-18 09:59:00,
2013-03-18 05:00:00,27.0,27.0,29.85,WNW,295,0.0,3.0,100,0.00,,,0.00,VWS V14.01,2013-03-18 10:00:00,
2013-03-18 05:04:00,29.7,27.9,29.83,WNW,287,2.0,5.0,93,0.00,,,0.00,VWS V14.01,2013-03-18 10:04:00,
2013-03-18 05:09:00,29.7,27.7,29.83,WNW,291,2.0,5.0,92,0.00,,,0.00,VWS V14.01,2013-03-18 10:09:00,
2013-03-18 05:14:00,29.7,28.2,29.83,WNW,292,2.0,5.0,94,0.00,,,0.00,VWS V14.01,2013-03-18 10:14:00,
2013-03-18 05:15:00,26.3,26.3,29.85,WNW,295,2.0,2.0,100,0.00,,,0.00,VWS V14.01,2013-03-18 10:15:00,
2013-03-18 05:19:00,29.7,28.2,29.83,WNW,294,2.0,4.0,94,0.00,,,0.00,VWS V14.01,2013-03-18 10:19:00,
2013-03-18 05:24:00,29.7,28.2,29.83,WNW,295,2.0,4.0,94,0.00,,,0.00,VWS V14.01,2013-03-18 10:24:00,
2013-03-18 05:29:00,29.5,28.0,29.83,WNW,295,2.0,4.0,94,0.00,,,0.00,VWS V14.01,2013-03-18 10:29:00,
2013-03-18 05:30:00,25.7,25.7,29.85,WNW,284,3.0,5.0,100,0.00,,,0.00,VWS V14.01,2013-03-18 10:30:00,
2013-03-18 05:34:00,29.0,27.5,29.83,WNW,295,3.0,3.0,94,0.00,,,0.00,VWS V14.01,2013-03-18 10:34:00,
2013-03-18 05:39:00,28.1,27.9,29.83,WNW,295,0.0,3.0,99,0.00,,,0.00,VWS V14.01,2013-03-18 10:39:00,
2013-03-18 05:44:00,27.6,27.6,29.83,WNW,295,0.0,3.0,100,0.00,,,0.00,VWS V14.01,2013-03-18 10:44:00,
2013-03-18 05:45:00,25.0,25.0,29.86,WNW,282,0.0,5.0,100,0.00,,,0.00,VWS V14.01,2013-03-18 10:45:00,
2013-03-18 05:49:00,27.2,27.2,29.84,WNW,295,0.0,0.0,100,0.00,,,0.00,VWS V14.01,2013-03-18 10:49:00,
2013-03-18 05:54:00,27.0,27.0,29.84,WNW,295,0.0,2.0,100,0.00,,,0.00,VWS V14.01,2013-03-18 10:54:00,
2013-03-18 05:59:00,27.0,27.0,29.84,WNW,295,0.0,3.0,100,0.00,,,0.00,VWS V14.01,2013-03-18 10:59:00,
2013-03-18 06:00:00,24.7,24.7,29.86,WNW,282,1.0,2.0,100,0.00,,,0.00,VWS V14.01,2013-03-18 11:00:00,
2013-03-18 06:04:00,27.0,27.0,29.85,WNW,295,0.0,2.0,100,0.00,,,0.00,VWS V14.01,2013-03-18 11:04:00,
2013-03-18 06:09:00,26.7,26.7,29.85,WNW,295,2.0,2.0,100,0.00,,,0.00,VWS V14.01,2013-03-18 11:09:00,
2013-03-18 06:14:00,26.4,26.4,29.85,WNW,295,0.0,2.0,100,0.00,,,0.00,VWS V14.01,2013-03-18 11:14:00,
2013-03-18 06:15:00,24.7,24.7,29.86,WNW,282,2.0,2.0,100,0.00,,,0.00,VWS V14.01,2013-03-18 11:15:00,
2013-03-18 06:19:00,26.1,26.1,29.85,WNW,295,1.0,2.0,100,0.00,,,0.00,VWS V14.01,2013-03-18 11:19:00,
2013-03-18 06:24:00,26.0,26.0,29.85,WNW,295,2.0,3.0,100,0.00,,,0.00,VWS V14.01,2013-03-18 11:24:00,
2013-03-18 06:29:00,25.7,25.7,29.85,WNW,295,1.0,3.0,100,0.00,,,0.00,VWS V14.01,2013-03-18 11:29:00,
2013-03-18 06:30:00,24.7,24.7,29.86,West,281,1.0,3.0,100,0.00,,,0.00,VWS V14.01,2013-03-18 11:30:00,
2013-03-18 06:34:00,25.4,25.4,29.85,WNW,282,2.0,5.0,100,0.00,,,0.00,VWS V14.01,2013-03-18 11:34:00,
2013-03-18 06:39:00,25.3,25.3,29.85,WNW,282,0.0,5.0,100,0.00,,,0.00,VWS V14.01,2013-03-18 11:39:00,
2013-03-18 06:44:00,25.1,25.1,29.85,WNW,282,0.0,5.0,100,0.00,,,0.00,VWS V14.01,2013-03-18 11:44:00,
2013-03-18 06:45:00,24.7,24.7,29.86,West,281,2.0,3.0,100,0.00,,,0.00,VWS V14.01,2013-03-18 11:45:00,
2013-03-18 06:49:00,25.0,25.0,29.86,WNW,282,2.0,2.0,100,0.00,,,0.00,VWS V14.01,2013-03-18 11:49:00,
2013-03-18 06:54:00,24.8,24.8,29.86,WNW,282,0.0,2.0,100,0.00,,,0.00,VWS V14.01,2013-03-18 11:54:00,
2013-03-18 06:59:00,24.7,24.7,29.86,WNW,282,2.0,2.0,100,0.00,,,0.00,VWS V14.01,2013-03-18 11:59:00,
2013-03-18 07:00:00,24.7,24.7,29.86,West,281,1.0,5.0,100,0.00,,,0.00,VWS V14.01,2013-03-18 12:00:00,
2013-03-18 07:04:00,24.5,24.5,29.86,WNW,282,2.0,2.0,100,0.00,,,0.00,VWS V14.01,2013-03-18 12:04:00,
2013-03-18 07:09:00,24.5,24.5,29.86,WNW,282,0.0,2.0,100,0.00,,,0.00,VWS V14.01,2013-03-18 12:09:00,
2013-03-18 07:14:00,24.5,24.5,29.86,WNW,282,0.0,2.0,100,0.00,,,0.00,VWS V14.01,2013-03-18 12:14:00,
2013-03-18 07:15:00,25.3,25.3,29.87,West,275,2.0,3.0,100,0.00,,,0.00,VWS V14.01,2013-03-18 12:15:00,
2013-03-18 07:19:00,24.7,24.7,29.86,WNW,282,1.0,2.0,100,0.00,,,0.00,VWS V14.01,2013-03-18 12:19:00,
2013-03-18 07:24:00,24.7,24.7,29.86,West,281,1.0,3.0,100,0.00,,,0.00,VWS V14.01,2013-03-18 12:24:00,
2013-03-18 07:29:00,24.7,24.7,29.86,West,281,1.0,3.0,100,0.00,,,0.00,VWS V14.01,2013-03-18 12:29:00,
2013-03-18 07:30:00,26.4,26.4,29.87,WSW,250,5.0,6.0,100,0.00,,,0.00,VWS V14.01,2013-03-18 12:30:00,
2013-03-18 07:34:00,24.7,24.7,29.86,West,281,2.0,2.0,100,0.00,,,0.00,VWS V14.01,2013-03-18 12:34:00,
2013-03-18 07:39:00,24.7,24.7,29.86,West,281,0.0,3.0,100,0.00,,,0.00,VWS V14.01,2013-03-18 12:39:00,
2013-03-18 07:44:00,24.7,24.7,29.86,West,281,1.0,3.0,100,0.00,,,0.00,VWS V14.01,2013-03-18 12:44:00,
2013-03-18 07:45:00,27.8,27.8,29.88,WSW,251,5.0,6.0,100,0.00,,,0.00,VWS V14.01,2013-03-18 12:45:00,
2013-03-18 07:49:00,24.5,24.5,29.86,West,281,5.0,5.0,100,0.00,,,0.00,VWS V14.01,2013-03-18 12:49:00,
2013-03-18 07:54:00,24.5,24.5,29.86,West,281,2.0,5.0,100,0.00,,,0.00,VWS V14.01,2013-03-18 12:54:00,
2013-03-18 07:59:00,24.7,24.7,29.86,West,281,2.0,5.0,100,0.00,,,0.00,VWS V14.01,2013-03-18 12:59:00,
2013-03-18 08:00:00,29.0,29.0,29.88,WSW,257,0.0,6.0,100,0.00,,,0.00,VWS V14.01,2013-03-18 13:00:00,
2013-03-18 08:04:00,24.8,24.8,29.86,West,281,1.0,2.0,100,0.00,,,0.00,VWS V14.01,2013-03-18 13:04:00,
2013-03-18 08:09:00,25.0,25.0,29.86,West,281,2.0,3.0,100,0.00,,,0.00,VWS V14.01,2013-03-18 13:09:00,
2013-03-18 08:14:00,25.1,25.1,29.86,West,281,1.0,3.0,100,0.00,,,0.00,VWS V14.01,2013-03-18 13:14:00,
2013-03-18 08:15:00,31.2,28.3,29.88,WNW,285,2.0,5.0,89,0.00,,,0.00,VWS V14.01,2013-03-18 13:15:00,
2013-03-18 08:19:00,25.6,25.6,29.87,WSW,250,5.0,5.0,100,0.00,,,0.00,VWS V14.01,2013-03-18 13:19:00,
2013-03-18 08:24:00,26.0,26.0,29.87,WSW,251,3.0,6.0,100,0.00,,,0.00,VWS V14.01,2013-03-18 13:24:00,
2013-03-18 08:29:00,26.3,26.3,29.87,WSW,253,3.0,6.0,100,0.00,,,0.00,VWS V14.01,2013-03-18 13:29:00,
2013-03-18 08:30:00,34.6,27.2,29.88,NW,326,1.0,7.0,74,0.00,,,0.00,VWS V14.01,2013-03-18 13:30:00,
2013-03-18 08:34:00,26.7,26.7,29.87,WSW,256,2.0,6.0,100,0.00,,,0.00,VWS V14.01,2013-03-18 13:34:00,
2013-03-18 08:39:00,27.2,27.2,29.87,WSW,257,3.0,6.0,100,0.00,,,0.00,VWS V14.01,2013-03-18 13:39:00,
2013-03-18 08:44:00,27.6,27.6,29.87,WSW,251,2.0,6.0,100,0.00,,,0.00,VWS V14.01,2013-03-18 13:44:00,
2013-03-18 08:45:00,36.2,25.2,29.88,NW,313,11.0,15.0,64,0.00,,,0.00,VWS V14.01,2013-03-18 13:45:00,
2013-03-18 08:49:00,27.9,27.9,29.88,WSW,254,2.0,5.0,100,0.00,,,0.00,VWS V14.01,2013-03-18 13:49:00,
2013-03-18 08:54:00,28.4,28.4,29.88,West,264,2.0,6.0,100,0.00,,,0.00,VWS V14.01,2013-03-18 13:54:00,
2013-03-18 08:59:00,28.8,28.8,29.88,WSW,257,2.0,6.0,100,0.00,,,0.00,VWS V14.01,2013-03-18 13:59:00,
2013-03-18 09:00:00,36.6,25.6,29.87,NNW,347,2.0,16.0,64,0.00,,,0.00,VWS V14.01,2013-03-18 14:00:00,
2013-03-18 09:04:00,29.3,29.3,29.88,WSW,257,1.0,3.0,100,0.00,,,0.00,VWS V14.01,2013-03-18 14:04:00,
2013-03-18 09:09:00,29.8,29.5,29.88,WSW,257,1.0,5.0,99,0.00,,,0.00,VWS V14.01,2013-03-18 14:09:00,
2013-03-18 09:14:00,30.7,28.9,29.88,West,274,3.0,5.0,93,0.00,,,0.00,VWS V14.01,2013-03-18 14:14:00,
2013-03-18 09:15:00,37.0,25.2,29.88,North,359,14.0,21.0,62,0.00,,,0.00,VWS V14.01,2013-03-18 14:15:00,
2013-03-18 09:19:00,31.9,28.2,29.88,WNW,282,4.0,6.0,86,0.00,,,0.00,VWS V14.01,2013-03-18 14:19:00,
2013-03-18 09:24:00,33.1,27.0,29.88,WNW,301,1.0,7.0,78,0.00,,,0.00,VWS V14.01,2013-03-18 14:24:00,
2013-03-18 09:29:00,34.3,27.5,29.88,NW,304,3.0,7.0,76,0.00,,,0.00,VWS V14.01,2013-03-18 14:29:00,
2013-03-18 09:30:00,37.3,25.1,29.88,North,356,8.0,20.0,61,0.00,,,0.00,VWS V14.01,2013-03-18 14:30:00,
2013-03-18 09:34:00,35.2,26.4,29.88,NW,313,4.0,7.0,70,0.00,,,0.00,VWS V14.01,2013-03-18 14:34:00,
2013-03-18 09:39:00,35.9,24.2,29.88,North,357,14.0,14.0,62,0.00,,,0.00,VWS V14.01,2013-03-18 14:39:00,
2013-03-18 09:44:00,36.2,24.5,29.88,NNW,346,7.0,15.0,62,0.00,,,0.00,VWS V14.01,2013-03-18 14:44:00,
2013-03-18 09:45:00,37.3,25.1,29.89,North,359,12.0,18.0,61,0.00,,,0.00,VWS V14.01,2013-03-18 14:45:00,
2013-03-18 09:49:00,36.3,25.7,29.88,NW,319,5.0,16.0,65,0.00,,,0.00,VWS V14.01,2013-03-18 14:49:00,
2013-03-18 09:54:00,36.5,25.9,29.88,NNW,336,2.0,16.0,65,0.00,,,0.00,VWS V14.01,2013-03-18 14:54:00,
2013-03-18 09:59:00,36.6,25.2,29.88,North,349,7.0,16.0,63,0.00,,,0.00,VWS V14.01,2013-03-18 14:59:00,
2013-03-18 10:00:00,37.6,25.8,29.89,NNW,340,9.0,25.0,62,0.00,,,0.00,VWS V14.01,2013-03-18 15:00:00,
2013-03-18 10:04:00,36.8,25.4,29.87,WNW,284,10.0,21.0,63,0.00,,,0.00,VWS V14.01,2013-03-18 15:04:00,
2013-03-18 10:09:00,36.9,26.6,29.87,WNW,299,4.0,21.0,66,0.00,,,0.00,VWS V14.01,2013-03-18 15:09:00,
2013-03-18 10:14:00,36.9,24.3,29.87,NNW,329,12.0,21.0,60,0.00,,,0.00,VWS V14.01,2013-03-18 15:14:00,
2013-03-18 10:15:00,38.5,25.0,29.90,NW,323,13.0,27.0,58,0.01,,,0.01,VWS V14.01,2013-03-18 15:15:00,
2013-03-18 10:19:00,37.2,27.3,29.88,NW,315,5.0,14.0,67,0.00,,,0.00,VWS V14.01,2013-03-18 15:19:00,
2013-03-18 10:24:00,37.2,26.5,29.88,NW,311,7.0,14.0,65,0.00,,,0.00,VWS V14.01,2013-03-18 15:24:00,
2013-03-18 10:29:00,37.3,27.0,29.88,NNW,347,8.0,14.0,66,0.00,,,0.00,VWS V14.01,2013-03-18 15:29:00,
2013-03-18 10:30:00,38.6,23.8,29.90,North,359,17.0,20.0,55,0.01,,,0.01,VWS V14.01,2013-03-18 15:30:00,
2013-03-18 10:34:00,37.5,26.1,29.88,North,359,10.0,14.0,63,0.00,,,0.00,VWS V14.01,2013-03-18 15:34:00,
2013-03-18 10:39:00,37.5,25.7,29.88,North,0,11.0,17.0,62,0.00,,,0.00,VWS V14.01,2013-03-18 15:39:00,
2013-03-18 10:44:00,37.5,24.9,29.88,WNW,296,6.0,18.0,60,0.00,,,0.00,VWS V14.01,2013-03-18 15:44:00,
2013-03-18 10:45:00,38.6,24.3,29.91,North,359,7.0,26.0,56,0.01,,,0.01,VWS V14.01,2013-03-18 15:45:00,
2013-03-18 10:49:00,37.2,24.6,29.89,North,356,5.0,19.0,60,0.00,,,0.00,VWS V14.01,2013-03-18 15:49:00,
2013-03-18 10:54:00,37.5,25.7,29.89,North,359,14.0,19.0,62,0.00,,,0.00,VWS V14.01,2013-03-18 15:54:00,
2013-03-18 10:59:00,37.5,25.3,29.89,NNW,336,12.0,25.0,61,0.00,,,0.00,VWS V14.01,2013-03-18 15:59:00,
2013-03-18 11:00:00,37.9,25.3,29.92,North,10,11.0,28.0,60,0.01,,,0.01,VWS V14.01,2013-03-18 16:00:00,
2013-03-18 11:04:00,37.8,25.6,29.89,North,352,20.0,20.0,61,0.01,,,0.01,VWS V14.01,2013-03-18 16:04:00,
2013-03-18 11:09:00,37.8,26.4,29.89,North,354,14.0,27.0,63,0.01,,,0.01,VWS V14.01,2013-03-18 16:09:00,
2013-03-18 11:14:00,38.3,26.8,29.89,North,359,22.0,27.0,63,0.01,,,0.01,VWS V14.01,2013-03-18 16:14:00,
2013-03-18 11:15:00,38.3,25.2,29.92,NNW,346,10.0,28.0,59,0.01,,,0.01,VWS V14.01,2013-03-18 16:15:00,
2013-03-18 11:19:00,38.6,24.3,29.90,NNW,342,7.0,17.0,56,0.01,,,0.01,VWS V14.01,2013-03-18 16:19:00,
2013-03-18 11:24:00,38.6,23.4,29.90,WNW,282,9.0,19.0,54,0.01,,,0.01,VWS V14.01,2013-03-18 16:24:00,
2013-03-18 11:29:00,38.8,24.9,29.90,NW,322,14.0,19.0,57,0.01,,,0.01,VWS V14.01,2013-03-18 16:29:00,
2013-03-18 11:30:00,38.6,22.5,29.92,North,359,13.0,27.0,52,0.00,,,0.01,VWS V14.01,2013-03-18 16:30:00,
2013-03-18 11:34:00,38.8,25.3,29.90,North,4,19.0,22.0,58,0.01,,,0.01,VWS V14.01,2013-03-18 16:34:00,
2013-03-18 11:39:00,38.6,25.9,29.90,North,354,10.0,24.0,60,0.01,,,0.01,VWS V14.01,2013-03-18 16:39:00,
2013-03-18 11:44:00,38.8,24.0,29.90,NNW,340,10.0,26.0,55,0.01,,,0.01,VWS V14.01,2013-03-18 16:44:00,
2013-03-18 11:45:00,39.9,22.8,29.93,North,356,6.0,24.0,50,0.00,,,0.01,VWS V14.01,2013-03-18 16:45:00,
2013-03-18 11:49:00,38.6,24.3,29.91,North,359,14.0,26.0,56,0.01,,,0.01,VWS V14.01,2013-03-18 16:49:00,
2013-03-18 11:54:00,38.2,26.0,29.91,NNW,337,17.0,26.0,61,0.01,,,0.01,VWS V14.01,2013-03-18 16:54:00,
2013-03-18 11:59:00,37.8,24.8,29.91,North,354,24.0,28.0,59,0.01,,,0.01,VWS V14.01,2013-03-18 16:59:00,
2013-03-18 12:00:00,39.5,22.4,29.93,NW,313,11.0,26.0,50,0.00,,,0.01,VWS V14.01,2013-03-18 17:00:00,
2013-03-18 12:04:00,38.2,26.0,29.92,NW,319,6.0,24.0,61,0.01,,,0.01,VWS V14.01,2013-03-18 17:04:00,
2013-03-18 12:09:00,38.3,23.1,29.92,North,354,24.0,28.0,54,0.01,,,0.01,VWS V14.01,2013-03-18 17:09:00,
2013-03-18 12:14:00,38.3,25.6,29.92,North,354,18.0,28.0,60,0.01,,,0.01,VWS V14.01,2013-03-18 17:14:00,
2013-03-18 12:15:00,40.6,19.3,29.92,North,352,14.0,19.0,42,0.00,,,0.01,VWS V14.01,2013-03-18 17:15:00,
2013-03-18 12:19:00,38.3,24.8,29.92,North,353,18.0,21.0,58,0.00,,,0.01,VWS V14.01,2013-03-18 17:19:00,
2013-03-18 12:24:00,38.2,24.7,29.92,NNW,340,7.0,21.0,58,0.00,,,0.01,VWS V14.01,2013-03-18 17:24:00,
2013-03-18 12:29:00,38.5,22.9,29.92,NNW,330,11.0,27.0,53,0.00,,,0.01,VWS V14.01,2013-03-18 17:29:00,
2013-03-18 12:30:00,40.6,18.2,29.92,WNW,294,16.0,26.0,40,0.00,,,0.01,VWS V14.01,2013-03-18 17:30:00,
2013-03-18 12:35:00,39.1,22.5,29.92,NNW,335,12.0,17.0,51,0.00,,,0.01,VWS V14.01,2013-03-18 17:35:00,
2013-03-18 12:40:00,39.8,21.2,29.92,NNW,342,5.0,21.0,47,0.00,,,0.01,VWS V14.01,2013-03-18 17:40:00,
2013-03-18 12:45:00,40.1,23.0,29.93,North,356,10.0,24.0,50,0.00,,,0.01,VWS V14.01,2013-03-18 17:45:00,
2013-03-18 12:50:00,39.8,23.2,29.93,NW,309,6.0,25.0,51,0.00,,,0.01,VWS V14.01,2013-03-18 17:50:00,
2013-03-18 12:55:00,39.2,19.7,29.93,North,359,19.0,25.0,45,0.00,,,0.01,VWS V14.01,2013-03-18 17:55:00,
2013-03-18 13:00:00,39.3,22.2,29.93,NW,311,4.0,26.0,50,0.00,,,0.01,VWS V14.01,2013-03-18 18:00:00,
2013-03-18 13:05:00,40.3,17.9,29.93,North,352,10.0,19.0,40,0.00,,,0.01,VWS V14.01,2013-03-18 18:05:00,
2013-03-18 13:10:00,40.6,17.6,29.93,NW,319,9.0,19.0,39,0.00,,,0.01,VWS V14.01,2013-03-18 18:10:00,
2013-03-18 13:15:00,40.8,19.5,29.92,North,359,14.0,19.0,42,0.00,,,0.01,VWS V14.01,2013-03-18 18:15:00,
2013-03-18 13:20:00,40.3,20.1,29.92,NW,326,4.0,19.0,44,0.00,,,0.01,VWS V14.01,2013-03-18 18:20:00,
2013-03-18 13:25:00,40.3,19.0,29.92,North,356,13.0,26.0,42,0.00,,,0.01,VWS V14.01,2013-03-18 18:25:00,
2013-03-18 13:30:00,40.5,18.1,29.92,NW,308,9.0,26.0,40,0.00,,,0.01,VWS V14.01,2013-03-18 18:30:00,
2013-03-18 13:35:00,40.5,16.3,29.92,NW,311,8.0,22.0,37,0.00,,,0.01,VWS V14.01,2013-03-18 18:35:00,
2013-03-18 13:40:00,41.1,17.4,29.92,WNW,282,14.0,22.0,38,0.00,,,0.01,VWS V14.01,2013-03-18 18:40:00,
2013-03-18 13:45:00,41.1,15.6,29.92,North,356,17.0,22.0,35,0.00,,,0.01,VWS V14.01,2013-03-18 18:45:00,
2013-03-18 13:50:00,41.2,16.9,29.92,NNW,343,6.0,24.0,37,0.00,,,0.01,VWS V14.01,2013-03-18 18:50:00,
2013-03-18 13:55:00,41.9,17.5,29.92,NW,312,9.0,24.0,37,0.00,,,0.01,VWS V14.01,2013-03-18 18:55:00,
2013-03-18 14:00:00,41.2,13.6,29.91,NW,308,5.0,28.0,32,0.00,,,0.01,VWS V14.01,2013-03-18 19:00:00,
2013-03-18 14:05:00,42.1,14.4,29.91,North,356,10.0,18.0,32,0.00,,,0.01,VWS V14.01,2013-03-18 19:05:00,
2013-03-18 14:10:00,41.9,15.6,29.91,North,356,8.0,24.0,34,0.00,,,0.01,VWS V14.01,2013-03-18 19:10:00,
2013-03-18 14:15:00,41.9,14.2,29.92,North,359,13.0,24.0,32,0.00,,,0.01,VWS V14.01,2013-03-18 19:15:00,
2013-03-18 14:20:00,41.5,13.1,29.92,NNW,328,10.0,25.0,31,0.00,,,0.01,VWS V14.01,2013-03-18 19:20:00,
2013-03-18 14:25:00,41.6,12.5,29.92,NW,322,13.0,25.0,30,0.00,,,0.01,VWS V14.01,2013-03-18 19:25:00,
2013-03-18 14:30:00,41.8,13.4,29.92,NNW,347,8.0,25.0,31,0.00,,,0.01,VWS V14.01,2013-03-18 19:30:00,
2013-03-18 14:35:00,42.2,10.6,29.92,WNW,291,12.0,16.0,27,0.00,,,0.01,VWS V14.01,2013-03-18 19:35:00,
2013-03-18 14:40:00,42.8,12.0,29.92,NNW,335,4.0,17.0,28,0.00,,,0.01,VWS V14.01,2013-03-18 19:40:00,
2013-03-18 14:45:00,42.3,12.3,29.92,North,0,9.0,19.0,29,0.00,,,0.01,VWS V14.01,2013-03-18 19:45:00,
2013-03-18 14:50:00,42.8,12.0,29.92,NNW,339,6.0,17.0,28,0.00,,,0.01,VWS V14.01,2013-03-18 19:50:00,
2013-03-18 14:55:00,42.1,13.7,29.92,NNW,333,7.0,26.0,31,0.00,,,0.01,VWS V14.01,2013-03-18 19:55:00,
2013-03-18 15:00:00,42.3,11.5,29.91,NNW,330,4.0,26.0,28,0.00,,,0.01,VWS V14.01,2013-03-18 20:00:00,
2013-03-18 15:05:00,43.1,9.7,29.91,NNW,344,10.0,13.0,25,0.00,,,0.01,VWS V14.01,2013-03-18 20:05:00,
2013-03-18 15:10:00,43.1,11.4,29.91,WNW,291,7.0,14.0,27,0.00,,,0.01,VWS V14.01,2013-03-18 20:10:00,
2013-03-18 15:15:00,43.5,12.6,29.91,North,352,7.0,17.0,28,0.00,,,0.01,VWS V14.01,2013-03-18 20:15:00,
2013-03-18 15:20:00,43.1,12.2,29.91,North,0,14.0,21.0,28,0.00,,,0.01,VWS V14.01,2013-03-18 20:20:00,
2013-03-18 15:25:00,42.2,13.8,29.91,NNW,343,9.0,22.0,31,0.00,,,0.01,VWS V14.01,2013-03-18 20:25:00,
2013-03-18 15:30:00,42.6,11.8,29.91,NNW,347,5.0,22.0,28,0.00,,,0.01,VWS V14.01,2013-03-18 20:30:00,
2013-03-18 15:36:00,42.2,13.0,29.91,North,6,12.0,16.0,30,0.00,,,0.01,VWS V14.01,2013-03-18 20:36:00,
2013-03-18 15:40:00,42.5,14.0,29.91,NW,306,7.0,26.0,31,0.00,,,0.01,VWS V14.01,2013-03-18 20:40:00,
2013-03-18 15:45:00,42.8,12.0,29.91,North,359,7.0,26.0,28,0.00,,,0.01,VWS V14.01,2013-03-18 20:45:00,
2013-03-18 15:50:00,42.2,16.5,29.91,North,356,17.0,22.0,35,0.00,,,0.01,VWS V14.01,2013-03-18 20:50:00,
2013-03-18 15:56:00,42.9,12.1,29.91,North,359,17.0,22.0,28,0.00,,,0.01,VWS V14.01,2013-03-18 20:56:00,
2013-03-18 16:00:00,42.8,17.1,29.91,North,353,17.0,22.0,35,0.00,,,0.01,VWS V14.01,2013-03-18 21:00:00,
2013-03-18 16:01:00,43.1,11.4,29.91,North,354,12.0,22.0,27,0.00,,,0.01,VWS V14.01,2013-03-18 21:01:00,
2013-03-18 16:06:00,43.1,13.0,29.91,North,352,10.0,16.0,29,0.00,,,0.01,VWS V14.01,2013-03-18 21:06:00,
2013-03-18 16:11:00,42.6,14.8,29.91,North,357,24.0,24.0,32,0.00,,,0.01,VWS V14.01,2013-03-18 21:11:00,
2013-03-18 16:15:00,42.6,14.1,29.91,North,359,11.0,19.0,31,0.00,,,0.01,VWS V14.01,2013-03-18 21:15:00,
2013-03-18 16:16:00,42.5,13.3,29.91,North,349,14.0,24.0,30,0.00,,,0.01,VWS V14.01,2013-03-18 21:16:00,
2013-03-18 16:21:00,43.1,11.4,29.91,North,350,12.0,19.0,27,0.00,,,0.01,VWS V14.01,2013-03-18 21:21:00,
2013-03-18 16:26:00,42.5,13.3,29.91,NNW,336,11.0,22.0,30,0.00,,,0.01,VWS V14.01,2013-03-18 21:26:00,
2013-03-18 16:30:00,42.6,13.4,29.91,North,1,10.0,19.0,30,0.00,,,0.01,VWS V14.01,2013-03-18 21:30:00,
2013-03-18 16:31:00,43.1,10.6,29.91,NW,320,5.0,22.0,26,0.00,,,0.01,VWS V14.01,2013-03-18 21:31:00,
2013-03-18 16:36:00,42.5,14.0,29.91,North,359,13.0,21.0,31,0.00,,,0.01,VWS V14.01,2013-03-18 21:36:00,
2013-03-18 16:41:00,43.1,13.0,29.91,NNW,335,7.0,21.0,29,0.00,,,0.01,VWS V14.01,2013-03-18 21:41:00,
2013-03-18 16:45:00,42.8,17.1,29.90,NNE,24,7.0,26.0,35,0.00,,,0.01,VWS V14.01,2013-03-18 21:45:00,
2013-03-18 16:46:00,42.9,12.1,29.90,North,1,12.0,21.0,28,0.00,,,0.01,VWS V14.01,2013-03-18 21:46:00,
2013-03-18 16:50:00,43.3,12.4,29.90,North,0,9.0,18.0,28,0.00,,,0.01,VWS V14.01,2013-03-18 21:50:00,
2013-03-18 16:56:00,42.9,12.9,29.90,NW,323,6.0,22.0,29,0.00,,,0.01,VWS V14.01,2013-03-18 21:56:00,
2013-03-18 17:00:00,42.6,14.8,29.91,North,1,12.0,18.0,32,0.00,,,0.01,VWS V14.01,2013-03-18 22:00:00,
2013-03-18 17:01:00,42.8,17.1,29.91,North,359,19.0,22.0,35,0.00,,,0.01,VWS V14.01,2013-03-18 22:01:00,
2013-03-18 17:05:00,42.5,12.5,29.91,North,359,16.0,19.0,29,0.00,,,0.01,VWS V14.01,2013-03-18 22:05:00,
2013-03-18 17:10:00,42.6,14.1,29.91,North,359,16.0,19.0,31,0.00,,,0.01,VWS V14.01,2013-03-18 22:10:00,
2013-03-18 17:15:00,42.5,14.0,29.92,North,0,7.0,14.0,31,0.00,,,0.01,VWS V14.01,2013-03-18 22:15:00,
2013-03-18 17:16:00,42.6,14.1,29.91,NNE,13,11.0,19.0,31,0.00,,,0.01,VWS V14.01,2013-03-18 22:16:00,
2013-03-18 17:21:00,42.9,11.2,29.91,North,359,14.0,19.0,27,0.00,,,0.01,VWS V14.01,2013-03-18 22:21:00,
2013-03-18 17:26:00,42.9,12.1,29.91,North,359,8.0,19.0,28,0.00,,,0.01,VWS V14.01,2013-03-18 22:26:00,
2013-03-18 17:30:00,42.3,16.6,29.93,NNE,20,10.0,18.0,35,0.00,,,0.01,VWS V14.01,2013-03-18 22:30:00,
2013-03-18 17:31:00,42.8,13.5,29.91,North,359,17.0,19.0,30,0.00,,,0.01,VWS V14.01,2013-03-18 22:31:00,
2013-03-18 17:36:00,42.6,14.1,29.91,North,353,14.0,21.0,31,0.00,,,0.01,VWS V14.01,2013-03-18 22:36:00,
2013-03-18 17:41:00,42.6,11.8,29.91,North,352,19.0,26.0,28,0.00,,,0.01,VWS V14.01,2013-03-18 22:41:00,
2013-03-18 17:45:00,42.1,17.7,29.92,North,354,7.0,17.0,37,0.00,,,0.01,VWS V14.01,2013-03-18 22:45:00,
2013-03-18 17:46:00,42.8,17.1,29.90,North,0,12.0,26.0,35,0.00,,,0.01,VWS V14.01,2013-03-18 22:46:00,
2013-03-18 17:51:00,42.6,15.5,29.90,North,359,10.0,17.0,33,0.00,,,0.01,VWS V14.01,2013-03-18 22:51:00,
2013-03-18 17:56:00,42.6,14.8,29.90,North,0,9.0,17.0,32,0.00,,,0.01,VWS V14.01,2013-03-18 22:56:00,
2013-03-18 18:00:00,41.8,13.4,29.93,North,354,10.0,14.0,31,0.00,,,0.01,VWS V14.01,2013-03-18 23:00:00,
2013-03-18 18:01:00,42.6,14.8,29.91,North,4,11.0,18.0,32,0.00,,,0.01,VWS V14.01,2013-03-18 23:01:00,
2013-03-18 18:06:00,42.5,17.4,29.91,North,359,7.0,14.0,36,0.00,,,0.01,VWS V14.01,2013-03-18 23:06:00,
2013-03-18 18:11:00,42.5,16.8,29.91,North,357,11.0,14.0,35,0.00,,,0.01,VWS V14.01,2013-03-18 23:11:00,
2013-03-18 18:15:00,41.3,17.6,29.93,NNE,23,5.0,11.0,38,0.00,,,0.01,VWS V14.01,2013-03-18 23:15:00,
2013-03-18 18:16:00,42.5,14.0,29.92,North,354,7.0,14.0,31,0.00,,,0.01,VWS V14.01,2013-03-18 23:16:00,
2013-03-18 18:21:00,42.5,14.0,29.92,North,0,13.0,13.0,31,0.00,,,0.01,VWS V14.01,2013-03-18 23:21:00,
2013-03-18 18:26:00,42.5,17.4,29.92,North,0,5.0,13.0,36,0.00,,,0.01,VWS V14.01,2013-03-18 23:26:00,
2013-03-18 18:30:00,40.3,15.5,29.93,NE,40,6.0,12.0,36,0.00,,,0.01,VWS V14.01,2013-03-18 23:30:00,
2013-03-18 18:31:00,42.3,16.6,29.93,NNE,13,10.0,18.0,35,0.00,,,0.01,VWS V14.01,2013-03-18 23:31:00,
2013-03-18 18:36:00,42.3,15.9,29.93,North,359,12.0,17.0,34,0.00,,,0.01,VWS V14.01,2013-03-18 23:36:00,
2013-03-18 18:41:00,42.2,17.2,29.93,North,359,14.0,17.0,36,0.00,,,0.01,VWS V14.01,2013-03-18 23:41:00,
2013-03-18 18:45:00,39.6,18.4,29.94,NE,37,5.0,11.0,42,0.00,,,0.01,VWS V14.01,2013-03-18 23:45:00,
2013-03-18 18:46:00,42.1,17.7,29.92,North,0,7.0,17.0,37,0.00,,,0.01,VWS V14.01,2013-03-18 23:46:00,
2013-03-18 18:51:00,41.9,13.5,29.92,North,1,11.0,14.0,31,0.00,,,0.01,VWS V14.01,2013-03-18 23:51:00,
2013-03-18 18:56:00,41.9,16.9,29.92,North,354,10.0,14.0,36,0.00,,,0.01,VWS V14.01,2013-03-18 23:56:00,
2013-03-18 19:00:00,38.6,16.4,29.94,NE,45,6.0,10.0,40,0.00,,,0.01,VWS V14.01,2013-03-19 00:00:00,
2013-03-18 19:01:00,41.8,13.4,29.93,North,0,6.0,14.0,31,0.00,,,0.01,VWS V14.01,2013-03-19 00:01:00,
2013-03-18 19:06:00,41.8,16.2,29.93,North,359,7.0,11.0,35,0.00,,,0.01,VWS V14.01,2013-03-19 00:06:00,
2013-03-18 19:11:00,41.6,16.0,29.93,NNE,27,5.0,11.0,35,0.00,,,0.01,VWS V14.01,2013-03-19 00:11:00,
2013-03-18 19:15:00,37.9,16.9,29.94,NE,45,5.0,11.0,42,0.00,,,0.01,VWS V14.01,2013-03-19 00:15:00,
2013-03-18 19:16:00,41.3,17.6,29.93,NNE,23,7.0,7.0,38,0.00,,,0.01,VWS V14.01,2013-03-19 00:16:00,
2013-03-18 19:21:00,41.1,18.0,29.93,NNE,14,6.0,7.0,39,0.00,,,0.01,VWS V14.01,2013-03-19 00:21:00,
2013-03-18 19:26:00,40.8,19.5,29.93,NE,38,6.0,8.0,42,0.00,,,0.01,VWS V14.01,2013-03-19 00:26:00,
2013-03-18 19:30:00,37.2,14.5,29.95,NE,37,6.0,12.0,39,0.00,,,0.01,VWS V14.01,2013-03-19 00:30:00,
2013-03-18 19:32:00,40.3,15.5,29.93,NNE,31,6.0,7.0,36,0.00,,,0.01,VWS V14.01,2013-03-19 00:32:00,
2013-03-18 19:37:00,40.1,15.9,29.93,NNE,21,7.0,11.0,37,0.00,,,0.01,VWS V14.01,2013-03-19 00:37:00,
2013-03-18 19:42:00,39.9,16.4,29.93,NNE,32,6.0,11.0,38,0.00,,,0.01,VWS V14.01,2013-03-19 00:42:00,
2013-03-18 19:45:00,36.6,13.4,29.95,NE,44,6.0,11.0,38,0.00,,,0.01,VWS V14.01,2013-03-19 00:45:00,
2013-03-18 19:47:00,39.6,18.4,29.94,NE,35,6.0,6.0,42,0.00,,,0.01,VWS V14.01,2013-03-19 00:47:00,
2013-03-18 19:52:00,39.2,18.6,29.94,NE,40,7.0,10.0,43,0.00,,,0.01,VWS V14.01,2013-03-19 00:52:00,
2013-03-18 19:57:00,38.9,16.6,29.94,NE,44,7.0,10.0,40,0.00,,,0.01,VWS V14.01,2013-03-19 00:57:00,
2013-03-18 20:00:00,35.9,15.6,29.97,NE,44,5.0,11.0,43,0.00,,,0.01,VWS V14.01,2013-03-19 01:00:00,
2013-03-18 20:02:00,38.6,17.5,29.94,NE,41,6.0,7.0,42,0.00,,,0.01,VWS V14.01,2013-03-19 01:02:00,
2013-03-18 20:07:00,38.3,18.3,29.94,NE,44,7.0,8.0,44,0.00,,,0.01,VWS V14.01,2013-03-19 01:07:00,
2013-03-18 20:12:00,38.2,17.7,29.94,NE,42,6.0,11.0,43,0.00,,,0.01,VWS V14.01,2013-03-19 01:12:00,
2013-03-18 20:15:00,35.5,14.1,29.95,NE,56,5.0,8.0,41,0.00,,,0.01,VWS V14.01,2013-03-19 01:15:00,
2013-03-18 20:17:00,37.8,14.5,29.94,NE,34,6.0,8.0,38,0.00,,,0.01,VWS V14.01,2013-03-19 01:17:00,
2013-03-18 20:22:00,37.5,16.0,29.94,NNE,31,6.0,8.0,41,0.00,,,0.01,VWS V14.01,2013-03-19 01:22:00,
2013-03-18 20:27:00,37.3,15.2,29.94,NE,44,5.0,12.0,40,0.00,,,0.01,VWS V14.01,2013-03-19 01:27:00,
2013-03-18 20:30:00,35.2,14.4,29.96,NE,42,5.0,10.0,42,0.00,,,0.01,VWS V14.01,2013-03-19 01:30:00,
2013-03-18 20:32:00,37.2,16.2,29.95,NE,34,11.0,11.0,42,0.00,,,0.01,VWS V14.01,2013-03-19 01:32:00,
2013-03-18 20:37:00,37.0,14.9,29.95,NE,40,5.0,11.0,40,0.00,,,0.01,VWS V14.01,2013-03-19 01:37:00,
2013-03-18 20:42:00,36.9,13.1,29.95,NE,48,5.0,11.0,37,0.00,,,0.01,VWS V14.01,2013-03-19 01:42:00,
2013-03-18 20:45:00,34.9,14.1,29.97,ENE,58,3.0,8.0,42,0.00,,,0.01,VWS V14.01,2013-03-19 01:45:00,
2013-03-18 20:47:00,36.6,11.6,29.95,NE,45,5.0,7.0,35,0.00,,,0.01,VWS V14.01,2013-03-19 01:47:00,
2013-03-18 20:52:00,36.3,14.9,29.95,NNE,30,7.0,8.0,41,0.00,,,0.01,VWS V14.01,2013-03-19 01:52:00,
2013-03-18 20:57:00,36.0,15.1,29.95,NE,42,5.0,11.0,42,0.00,,,0.01,VWS V14.01,2013-03-19 01:57:00,
2013-03-18 21:00:00,34.6,14.4,29.98,NE,49,6.0,8.0,43,0.00,,,0.01,VWS V14.01,2013-03-19 02:00:00,
2013-03-18 21:02:00,35.9,14.5,29.97,NE,45,5.0,6.0,41,0.00,,,0.01,VWS V14.01,2013-03-19 02:02:00,
2013-03-18 21:07:00,35.8,15.0,29.97,NE,56,5.0,7.0,42,0.00,,,0.01,VWS V14.01,2013-03-19 02:07:00,
2013-03-18 21:12:00,35.6,15.3,29.97,ENE,58,6.0,7.0,43,0.00,,,0.01,VWS V14.01,2013-03-19 02:12:00,
2013-03-18 21:15:00,34.4,14.2,30.00,NE,52,5.0,8.0,43,0.00,,,0.01,VWS V14.01,2013-03-19 02:15:00,
2013-03-18 21:17:00,35.5,14.7,29.95,ENE,58,7.0,7.0,42,0.00,,,0.01,VWS V14.01,2013-03-19 02:17:00,
2013-03-18 21:22:00,35.3,14.0,29.95,NE,38,5.0,10.0,41,0.00,,,0.01,VWS V14.01,2013-03-19 02:22:00,
2013-03-18 21:27:00,35.3,16.1,29.95,NE,41,5.0,10.0,45,0.00,,,0.01,VWS V14.01,2013-03-19 02:27:00,
2013-03-18 21:30:00,34.6,12.2,30.01,NE,54,6.0,7.0,39,0.00,,,0.01,VWS V14.01,2013-03-19 02:30:00,
2013-03-18 21:32:00,35.2,15.5,29.96,NE,48,6.0,7.0,44,0.00,,,0.01,VWS V14.01,2013-03-19 02:32:00,
2013-03-18 21:37:00,35.0,14.2,29.96,NE,55,5.0,7.0,42,0.00,,,0.01,VWS V14.01,2013-03-19 02:37:00,
2013-03-18 21:42:00,34.9,15.2,29.96,NE,56,6.0,8.0,44,0.00,,,0.01,VWS V14.01,2013-03-19 02:42:00,
2013-03-18 21:45:00,35.2,10.9,30.01,ENE,61,6.0,11.0,36,0.00,,,0.01,VWS V14.01,2013-03-19 02:45:00,
2013-03-18 21:47:00,34.7,15.0,29.97,NE,49,5.0,8.0,44,0.00,,,0.01,VWS V14.01,2013-03-19 02:47:00,
2013-03-18 21:52:00,34.9,15.2,29.97,NE,40,6.0,8.0,44,0.00,,,0.01,VWS V14.01,2013-03-19 02:52:00,
2013-03-18 21:57:00,34.7,12.9,29.97,NE,54,6.0,8.0,40,0.00,,,0.01,VWS V14.01,2013-03-19 02:57:00,
2013-03-18 21:58:00,34.9,7.3,30.01,NE,45,6.0,13.0,31,0.00,,,0.01,VWS V14.01,2013-03-19 02:58:00,
2013-03-18 21:59:00,34.7,7.2,30.02,NE,44,5.0,13.0,31,0.00,,,0.01,VWS V14.01,2013-03-19 02:59:00,
2013-03-18 22:00:00,34.7,7.2,30.02,NE,35,4.0,13.0,31,0.00,,,0.01,VWS V14.01,2013-03-19 03:00:00,
2013-03-18 22:01:00,34.7,9.2,30.02,NE,35,5.0,5.0,34,0.00,,,0.01,VWS V14.01,2013-03-19 03:01:00,
2013-03-18 22:02:00,34.6,14.4,29.98,NE,51,5.0,7.0,43,0.00,,,0.01,VWS V14.01,2013-03-19 03:02:00,
2013-03-18 22:03:00,34.9,10.7,30.02,NE,41,5.0,7.0,36,0.00,,,0.01,VWS V14.01,2013-03-19 03:03:00,
2013-03-18 22:04:00,35.0,13.7,30.02,NE,52,6.0,8.0,41,0.00,,,0.01,VWS V14.01,2013-03-19 03:04:00,
2013-03-18 22:05:00,35.0,6.7,30.02,NE,44,5.0,10.0,30,0.00,,,0.01,VWS V14.01,2013-03-19 03:05:00,
2013-03-18 22:07:00,34.6,13.9,29.98,NE,49,5.0,7.0,42,0.00,,,0.01,VWS V14.01,2013-03-19 03:07:00,
2013-03-18 22:12:00,34.6,13.3,29.98,NE,52,6.0,8.0,41,0.00,,,0.01,VWS V14.01,2013-03-19 03:12:00,
2013-03-18 22:15:00,35.0,10.8,30.00,NE,54,5.0,10.0,36,0.00,,,0.01,VWS V14.01,2013-03-19 03:15:00,
2013-03-18 22:17:00,34.4,12.0,30.00,NE,52,2.0,7.0,39,0.00,,,0.01,VWS V14.01,2013-03-19 03:17:00,
2013-03-18 22:22:00,34.6,11.0,30.00,NE,52,6.0,7.0,37,0.00,,,0.01,VWS V14.01,2013-03-19 03:22:00,
2013-03-18 22:27:00,34.6,11.0,30.00,NE,52,5.0,7.0,37,0.00,,,0.01,VWS V14.01,2013-03-19 03:27:00,
2013-03-18 22:30:00,35.2,6.9,30.00,NE,35,6.0,13.0,30,0.00,,,0.01,VWS V14.01,2013-03-19 03:30:00,
2013-03-18 22:32:00,34.7,10.5,30.01,NE,54,5.0,7.0,36,0.00,,,0.01,VWS V14.01,2013-03-19 03:32:00,
2013-03-18 22:37:00,34.9,13.0,30.01,NE,55,7.0,7.0,40,0.00,,,0.01,VWS V14.01,2013-03-19 03:37:00,
2013-03-18 22:42:00,34.9,10.0,30.01,NE,48,5.0,7.0,35,0.00,,,0.01,VWS V14.01,2013-03-19 03:42:00,
2013-03-18 22:45:00,35.5,13.0,30.00,NE,54,2.0,12.0,39,0.00,,,0.01,VWS V14.01,2013-03-19 03:45:00,
2013-03-18 22:48:00,35.2,9.7,30.01,NE,49,5.0,8.0,34,0.00,,,0.01,VWS V14.01,2013-03-19 03:48:00,
2013-03-18 22:53:00,35.2,11.6,30.01,ENE,73,3.0,12.0,37,0.00,,,0.01,VWS V14.01,2013-03-19 03:53:00,
2013-03-18 22:57:00,34.9,7.3,30.01,NE,37,6.0,13.0,31,0.00,,,0.01,VWS V14.01,2013-03-19 03:57:00,
2013-03-18 23:00:00,35.3,14.0,30.00,NE,40,5.0,7.0,41,0.00,,,0.01,VWS V14.01,2013-03-19 04:00:00,
2013-03-18 23:05:00,35.0,13.7,30.02,NE,44,8.0,8.0,41,0.00,,,0.01,VWS V14.01,2013-03-19 04:05:00,
2013-03-18 23:10:00,35.0,8.8,30.02,NE,48,5.0,10.0,33,0.00,,,0.01,VWS V14.01,2013-03-19 04:10:00,
2013-03-18 23:15:00,35.0,9.5,30.02,NE,51,6.0,10.0,34,0.00,,,0.01,VWS V14.01,2013-03-19 04:15:00,
2013-03-18 23:20:00,35.0,11.4,30.00,ENE,66,8.0,8.0,37,0.00,,,0.01,VWS V14.01,2013-03-19 04:20:00,
2013-03-18 23:25:00,35.3,12.2,30.00,ENE,72,7.0,13.0,38,0.00,,,0.01,VWS V14.01,2013-03-19 04:25:00,
2013-03-18 23:30:00,35.2,10.9,30.00,NE,54,7.0,13.0,36,0.00,,,0.01,VWS V14.01,2013-03-19 04:30:00,
2013-03-18 23:35:00,35.5,13.6,30.00,NE,37,4.0,12.0,40,0.00,,,0.01,VWS V14.01,2013-03-19 04:35:00,
2013-03-18 23:40:00,35.5,13.6,30.00,NE,54,2.0,12.0,40,0.00,,,0.01,VWS V14.01,2013-03-19 04:40:00,
2013-03-18 23:45:00,35.5,12.4,30.00,NE,54,2.0,12.0,38,0.00,,,0.01,VWS V14.01,2013-03-19 04:45:00,
2013-03-18 23:50:00,35.3,11.0,30.00,NE,54,4.0,5.0,36,0.00,,,0.01,VWS V14.01,2013-03-19 04:50:00,
2013-03-18 23:55:00,35.5,15.8,30.00,NNE,32,5.0,7.0,44,0.00,,,0.01,VWS V14.01,2013-03-19 04:55:00,